createdAt,value
2022-11-09T00:01:05.624Z,9.10
2022-11-09T00:03:33.070Z,9.20
2022-11-09T00:06:01.037Z,9.10
2022-11-09T00:08:29.096Z,9.00
2022-11-09T00:11:02.109Z,9.00
2022-11-09T00:13:28.965Z,8.90
2022-11-09T00:16:00.037Z,8.90
2022-11-09T00:18:26.913Z,8.90
2022-11-09T00:20:54.264Z,8.90
2022-11-09T00:23:22.315Z,8.80
2022-11-09T00:25:49.525Z,8.70
2022-11-09T00:28:16.457Z,8.70
2022-11-09T00:30:43.314Z,8.60
2022-11-09T00:33:12.035Z,8.60
2022-11-09T00:35:39.549Z,8.60
2022-11-09T00:38:06.509Z,8.60
2022-11-09T00:40:33.450Z,8.50
2022-11-09T00:43:00.305Z,8.60
2022-11-09T00:45:27.158Z,8.60
2022-11-09T00:47:54.114Z,8.70
2022-11-09T00:50:20.954Z,8.70
2022-11-09T00:52:48.413Z,8.60
2022-11-09T00:55:15.419Z,8.50
2022-11-09T00:57:42.410Z,8.50
2022-11-09T01:00:10.230Z,8.50
2022-11-09T01:02:37.078Z,8.50
2022-11-09T01:05:04.584Z,8.50
2022-11-09T01:07:31.627Z,8.40
2022-11-09T01:09:58.476Z,8.30
2022-11-09T01:12:25.360Z,8.30
2022-11-09T01:14:52.208Z,8.30
2022-11-09T01:17:19.087Z,8.30
2022-11-09T01:19:45.943Z,8.20
2022-11-09T01:22:12.804Z,8.20
2022-11-09T01:24:39.659Z,8.30
2022-11-09T01:27:06.504Z,8.40
2022-11-09T01:29:33.435Z,8.50
2022-11-09T01:32:00.311Z,8.70
2022-11-09T01:34:29.078Z,8.80
2022-11-09T01:36:56.120Z,8.90
2022-11-09T01:39:23.228Z,8.90
2022-11-09T01:41:50.075Z,8.90
2022-11-09T01:44:20.571Z,8.90
2022-11-09T01:47:19.760Z,8.90
2022-11-09T01:50:00.274Z,8.80
2022-11-09T01:52:40.344Z,8.70
2022-11-09T01:55:16.340Z,8.60
2022-11-09T01:58:03.116Z,8.60
2022-11-09T02:00:34.016Z,8.60
2022-11-09T02:03:32.530Z,8.60
2022-11-09T02:06:04.940Z,8.70
2022-11-09T02:08:32.398Z,8.80
2022-11-09T02:11:12.089Z,8.80
2022-11-09T02:13:49.072Z,8.80
2022-11-09T02:16:18.360Z,8.80
2022-11-09T02:18:57.956Z,8.80
2022-11-09T02:21:32.079Z,8.70
2022-11-09T02:24:00.569Z,8.60
2022-11-09T02:26:47.602Z,8.40
2022-11-09T02:29:26.416Z,8.30
2022-11-09T02:32:03.312Z,8.20
2022-11-09T02:34:30.779Z,8.10
2022-11-09T02:36:57.608Z,8.10
2022-11-09T02:39:28.548Z,8.10
2022-11-09T02:42:21.982Z,8.00
2022-11-09T02:44:59.066Z,8.00
2022-11-09T02:47:26.535Z,7.90
2022-11-09T02:49:53.632Z,7.80
2022-11-09T02:52:20.513Z,7.80
2022-11-09T02:54:47.752Z,7.80
2022-11-09T02:57:14.647Z,7.80
2022-11-09T02:59:41.584Z,7.80
2022-11-09T03:02:08.610Z,7.90
2022-11-09T03:04:35.807Z,7.90
2022-11-09T03:07:02.769Z,8.00
2022-11-09T03:09:29.619Z,8.00
2022-11-09T03:11:56.503Z,8.10
2022-11-09T03:14:23.351Z,8.10
2022-11-09T03:16:51.071Z,8.20
2022-11-09T03:19:18.129Z,8.30
2022-11-09T03:21:44.991Z,8.30
2022-11-09T03:24:11.934Z,8.40
2022-11-09T03:26:38.812Z,8.50
2022-11-09T03:29:05.716Z,8.60
2022-11-09T03:31:32.641Z,8.70
2022-11-09T03:33:59.489Z,8.80
2022-11-09T03:36:26.328Z,8.80
2022-11-09T03:38:53.160Z,8.80
2022-11-09T03:41:20.009Z,8.80
2022-11-09T03:43:46.916Z,8.70
2022-11-09T03:46:13.777Z,8.70
2022-11-09T03:48:40.645Z,8.70
2022-11-09T03:51:07.501Z,8.70
2022-11-09T03:53:34.341Z,8.70
2022-11-09T03:56:01.237Z,8.60
2022-11-09T03:58:28.081Z,8.50
2022-11-09T04:00:54.971Z,8.40
2022-11-09T04:03:22.219Z,8.30
2022-11-09T04:05:49.257Z,8.20
2022-11-09T04:08:16.275Z,8.20
2022-11-09T04:10:43.222Z,8.20
2022-11-09T04:13:10.165Z,8.10
2022-11-09T04:15:37.091Z,8.00
2022-11-09T04:18:04.071Z,8.00
2022-11-09T04:20:32.426Z,8.00
2022-11-09T04:23:03.502Z,8.10
2022-11-09T04:25:36.558Z,8.10
2022-11-09T04:28:07.106Z,8.10
2022-11-09T04:30:36.786Z,8.10
2022-11-09T04:33:04.787Z,8.10
2022-11-09T04:35:34.060Z,8.20
2022-11-09T04:38:08.378Z,8.30
2022-11-09T04:40:36.545Z,8.30
2022-11-09T04:43:06.958Z,8.30
2022-11-09T04:45:35.590Z,8.30
2022-11-09T04:48:07.306Z,8.30
2022-11-09T04:50:34.859Z,8.30
2022-11-09T04:53:13.002Z,8.30
2022-11-09T04:55:41.324Z,8.40
2022-11-09T04:58:09.084Z,8.40
2022-11-09T05:00:36.943Z,8.40
2022-11-09T05:03:06.913Z,8.40
2022-11-09T05:05:37.579Z,8.40
2022-11-09T05:08:06.341Z,8.50
2022-11-09T05:10:34.733Z,8.40
2022-11-09T05:13:09.924Z,8.40
2022-11-09T05:15:37.327Z,8.40
2022-11-09T05:18:06.295Z,8.40
2022-11-09T05:20:33.887Z,8.40
2022-11-09T05:23:21.019Z,8.40
2022-11-09T05:25:48.484Z,8.40
2022-11-09T05:28:15.492Z,8.40
2022-11-09T05:30:42.472Z,8.30
2022-11-09T05:33:09.368Z,8.30
2022-11-09T05:35:36.251Z,8.30
2022-11-09T05:38:03.189Z,8.30
2022-11-09T05:40:30.076Z,8.20
2022-11-09T05:42:56.957Z,8.20
2022-11-09T05:45:41.991Z,8.30
2022-11-09T05:48:12.917Z,8.30
2022-11-09T05:50:41.149Z,8.20
2022-11-09T05:53:09.692Z,8.20
2022-11-09T05:55:36.548Z,8.20
2022-11-09T05:58:04.200Z,8.30
2022-11-09T06:00:31.324Z,8.30
2022-11-09T06:03:08.164Z,8.30
2022-11-09T06:05:38.328Z,8.30
2022-11-09T06:08:13.050Z,8.30
2022-11-09T06:10:42.214Z,8.30
2022-11-09T06:13:10.008Z,8.30
2022-11-09T06:15:36.937Z,8.30
2022-11-09T06:18:03.981Z,8.30
2022-11-09T06:20:32.997Z,8.30
2022-11-09T06:23:03.821Z,8.30
2022-11-09T06:25:33.301Z,8.30
2022-11-09T06:28:01.403Z,8.30
2022-11-09T06:30:29.007Z,8.30
2022-11-09T06:33:03.220Z,8.30
2022-11-09T06:35:30.491Z,8.30
2022-11-09T06:38:00.150Z,8.30
2022-11-09T06:40:28.542Z,8.30
2022-11-09T06:43:01.383Z,8.40
2022-11-09T06:45:30.467Z,8.40
2022-11-09T06:48:00.049Z,8.30
2022-11-09T06:50:31.623Z,8.30
2022-11-09T06:53:03.523Z,8.40
2022-11-09T06:55:33.870Z,8.30
2022-11-09T06:58:07.247Z,8.30
2022-11-09T07:00:34.229Z,8.20
2022-11-09T07:03:01.387Z,8.20
2022-11-09T07:05:28.502Z,8.30
2022-11-09T07:07:57.002Z,8.30
2022-11-09T07:10:24.659Z,8.20
2022-11-09T07:12:51.562Z,8.20
2022-11-09T07:15:18.645Z,8.20
2022-11-09T07:17:45.595Z,8.20
2022-11-09T07:20:14.665Z,8.30
2022-11-09T07:22:42.218Z,8.40
2022-11-09T07:25:12.617Z,8.60
2022-11-09T07:27:39.478Z,8.70
2022-11-09T07:30:07.454Z,8.70
2022-11-09T07:33:08.679Z,8.80
2022-11-09T07:35:29.868Z,8.90
2022-11-09T07:38:01.786Z,8.90
2022-11-09T07:40:30.285Z,8.80
2022-11-09T07:43:06.336Z,8.70
2022-11-09T07:45:35.956Z,8.70
2022-11-09T07:48:08.894Z,8.60
2022-11-09T07:50:38.231Z,8.50
2022-11-09T07:53:07.303Z,8.30
2022-11-09T07:55:35.451Z,8.30
2022-11-09T07:58:08.631Z,8.20
2022-11-09T08:00:39.446Z,8.20
2022-11-09T08:03:06.946Z,8.20
2022-11-09T08:05:35.036Z,8.20
2022-11-09T08:08:08.582Z,8.30
2022-11-09T08:10:37.038Z,8.30
2022-11-09T08:13:11.238Z,8.50
2022-11-09T08:15:38.773Z,8.60
2022-11-09T08:18:12.402Z,8.60
2022-11-09T08:20:39.577Z,8.60
2022-11-09T08:23:07.105Z,8.50
2022-11-09T08:25:35.408Z,8.50
2022-11-09T08:28:03.566Z,8.50
2022-11-09T08:30:31.637Z,8.60
2022-11-09T08:33:03.695Z,8.60
2022-11-09T08:35:31.197Z,8.70
2022-11-09T08:38:04.223Z,8.80
2022-11-09T08:40:33.345Z,9.00
2022-11-09T08:43:07.733Z,9.10
2022-11-09T08:45:38.366Z,9.20
2022-11-09T08:48:08.495Z,9.30
2022-11-09T08:50:37.058Z,9.20
2022-11-09T08:53:05.695Z,9.20
2022-11-09T08:55:33.078Z,9.20
2022-11-09T08:58:03.534Z,9.20
2022-11-09T09:03:58.947Z,9.20
2022-11-09T09:06:30.922Z,9.30
2022-11-09T09:08:58.351Z,9.30
2022-11-09T09:11:25.227Z,9.30
2022-11-09T09:13:52.064Z,9.40
2022-11-09T09:16:19.066Z,9.50
2022-11-09T09:18:48.816Z,9.60
2022-11-09T09:21:16.228Z,9.60
2022-11-09T09:23:43.103Z,9.90
2022-11-09T09:26:10.111Z,10.10
2022-11-09T09:28:37.959Z,10.10
2022-11-09T09:31:04.996Z,10.00
2022-11-09T09:33:32.477Z,10.00
2022-11-09T09:36:00.108Z,10.10
2022-11-09T09:38:29.675Z,10.20
2022-11-09T09:41:07.164Z,10.30
2022-11-09T09:43:50.418Z,10.30
2022-11-09T09:47:10.242Z,10.50
2022-11-09T09:49:49.820Z,10.70
2022-11-09T09:53:33.631Z,10.90
2022-11-09T09:56:16.929Z,11.10
2022-11-09T09:58:55.688Z,11.10
2022-11-09T10:01:36.548Z,11.00
2022-11-09T10:04:09.203Z,11.00
2022-11-09T10:07:24.416Z,11.30
2022-11-09T10:10:28.704Z,11.50
2022-11-09T10:14:14.861Z,11.60
2022-11-09T10:17:06.417Z,11.50
2022-11-09T10:20:03.621Z,11.20
2022-11-09T10:23:25.436Z,11.40
2022-11-09T10:26:16.579Z,11.70
2022-11-09T10:29:15.054Z,12.00
2022-11-09T10:31:47.873Z,12.20
2022-11-09T10:34:42.122Z,12.50
2022-11-09T10:37:50.777Z,13.00
2022-11-09T10:40:50.402Z,14.00
2022-11-09T10:43:17.462Z,15.20
2022-11-09T10:45:56.929Z,17.70
2022-11-09T10:48:39.995Z,21.20
2022-11-09T10:51:46.454Z,23.30
2022-11-09T10:54:27.929Z,23.90
2022-11-09T10:57:14.632Z,23.50
2022-11-09T10:59:54.603Z,23.90
2022-11-09T11:02:28.773Z,24.70
2022-11-09T11:05:07.741Z,25.20
2022-11-09T11:07:36.349Z,23.80
2022-11-09T11:10:16.234Z,23.50
2022-11-09T11:12:53.356Z,21.80
2022-11-09T11:15:38.646Z,21.10
2022-11-09T11:18:27.166Z,21.60
2022-11-09T11:21:20.191Z,21.60
2022-11-09T11:24:14.772Z,20.70
2022-11-09T11:27:10.923Z,19.80
2022-11-09T11:30:15.650Z,19.00
2022-11-09T11:32:47.270Z,18.40
2022-11-09T11:35:36.451Z,17.80
2022-11-09T11:38:47.058Z,17.50
2022-11-09T11:42:24.932Z,17.30
2022-11-09T11:45:42.365Z,17.00
2022-11-09T11:48:57.274Z,16.90
2022-11-09T11:51:55.843Z,16.90
2022-11-09T11:55:00.767Z,17.40
2022-11-09T11:58:16.248Z,18.10
2022-11-09T12:01:39.475Z,18.10
2022-11-09T12:05:25.891Z,17.70
2022-11-09T12:08:09.528Z,17.40
2022-11-09T12:11:19.953Z,17.30
2022-11-09T12:14:21.244Z,17.20
2022-11-09T12:16:59.025Z,17.10
2022-11-09T12:20:03.656Z,17.40
2022-11-09T12:23:25.036Z,18.60
2022-11-09T12:27:35.552Z,20.80
2022-11-09T12:30:14.441Z,23.10
2022-11-09T12:33:02.027Z,24.70
2022-11-09T12:35:40.961Z,26.20
2022-11-09T12:38:38.632Z,28.40
2022-11-09T12:41:19.585Z,29.20
2022-11-09T12:44:06.530Z,29.10
2022-11-09T12:46:45.102Z,27.50
2022-11-09T12:49:42.897Z,27.30
2022-11-09T12:52:16.961Z,28.40
2022-11-09T12:54:49.714Z,28.00
2022-11-09T12:57:30.277Z,29.60
2022-11-09T13:00:00.870Z,30.30
2022-11-09T13:02:57.669Z,30.70
2022-11-09T13:05:38.622Z,28.00
2022-11-09T13:08:18.466Z,25.20
2022-11-09T13:10:45.590Z,23.10
2022-11-09T13:13:12.345Z,21.60
2022-11-09T13:16:09.076Z,20.70
2022-11-09T13:18:37.678Z,19.80
2022-11-09T13:21:21.495Z,19.20
2022-11-09T13:24:01.703Z,18.60
2022-11-09T13:26:32.249Z,18.10
2022-11-09T13:29:28.382Z,17.70
2022-11-09T13:32:11.646Z,17.30
2022-11-09T13:35:00.608Z,17.10
2022-11-09T13:37:53.531Z,16.80
2022-11-09T13:40:32.591Z,16.70
2022-11-09T13:43:19.250Z,16.60
2022-11-09T13:46:12.140Z,16.50
2022-11-09T13:48:52.763Z,16.20
2022-11-09T13:51:35.648Z,15.80
2022-11-09T13:54:32.829Z,15.50
2022-11-09T13:57:06.738Z,15.20
2022-11-09T13:59:49.748Z,15.00
2022-11-09T14:02:25.687Z,14.80
2022-11-09T14:04:54.068Z,14.70
2022-11-09T14:07:32.759Z,14.50
2022-11-09T14:10:58.756Z,14.40
2022-11-09T14:14:13.179Z,14.30
2022-11-09T14:17:42.039Z,14.20
2022-11-09T14:21:01.416Z,14.10
2022-11-09T14:23:33.579Z,14.00
2022-11-09T14:26:10.208Z,13.90
2022-11-09T14:28:37.394Z,13.90
2022-11-09T14:31:04.732Z,13.80
2022-11-09T14:33:35.403Z,13.80
2022-11-09T14:36:05.607Z,13.80
2022-11-09T14:38:47.667Z,13.70
2022-11-09T14:41:25.850Z,13.70
2022-11-09T14:43:58.628Z,13.60
2022-11-09T14:46:31.587Z,13.50
2022-11-09T14:49:03.133Z,13.50
2022-11-09T14:51:40.185Z,13.40
2022-11-09T14:54:14.213Z,13.40
2022-11-09T14:56:43.808Z,13.30
2022-11-09T14:59:36.361Z,13.20
2022-11-09T15:02:19.568Z,13.10
2022-11-09T15:05:06.131Z,13.00
2022-11-09T15:07:36.296Z,12.90
2022-11-09T15:10:20.055Z,12.80
2022-11-09T15:12:56.076Z,12.80
2022-11-09T15:15:28.808Z,12.70
2022-11-09T15:17:56.386Z,12.60
2022-11-09T15:20:33.710Z,12.60
2022-11-09T15:23:38.424Z,12.50
2022-11-09T15:26:05.313Z,12.50
2022-11-09T15:28:35.567Z,12.40
2022-11-09T15:31:02.313Z,12.30
2022-11-09T15:33:52.227Z,12.20
2022-11-09T15:36:35.434Z,12.10
2022-11-09T15:39:24.298Z,12.10
2022-11-09T15:41:51.214Z,12.10
2022-11-09T15:44:20.430Z,12.00
2022-11-09T15:46:52.441Z,11.90
2022-11-09T15:49:26.797Z,11.80
2022-11-09T15:51:55.968Z,11.60
2022-11-09T15:54:24.541Z,11.50
2022-11-09T15:56:52.499Z,11.50
2022-11-09T15:59:26.300Z,11.40
2022-11-09T16:01:53.698Z,11.40
2022-11-09T16:04:20.618Z,11.40
2022-11-09T16:06:47.684Z,11.40
2022-11-09T16:09:15.754Z,11.30
2022-11-09T16:11:42.614Z,11.30
2022-11-09T16:14:09.484Z,11.30
2022-11-09T16:16:36.372Z,11.30
2022-11-09T16:19:03.260Z,11.30
2022-11-09T16:21:30.143Z,11.30
2022-11-09T16:23:58.658Z,11.30
2022-11-09T16:26:26.075Z,11.30
2022-11-09T16:28:54.873Z,11.30
2022-11-09T16:31:41.069Z,11.30
2022-11-09T16:34:08.734Z,11.30
2022-11-09T16:36:37.203Z,11.30
2022-11-09T16:39:12.466Z,11.30
2022-11-09T16:41:42.017Z,11.30
2022-11-09T16:44:09.227Z,11.30
2022-11-09T16:46:36.232Z,11.40
2022-11-09T16:49:03.726Z,11.40
2022-11-09T16:51:31.048Z,11.30
2022-11-09T16:53:57.922Z,11.30
2022-11-09T16:56:25.235Z,11.30
2022-11-09T16:58:52.570Z,11.20
2022-11-09T17:01:23.269Z,11.20
2022-11-09T17:03:50.660Z,11.20
2022-11-09T17:06:17.630Z,11.30
2022-11-09T17:08:44.716Z,11.30
2022-11-09T17:11:15.322Z,11.30
2022-11-09T17:13:42.306Z,11.20
2022-11-09T17:16:13.492Z,11.20
2022-11-09T17:18:42.023Z,11.20
2022-11-09T17:21:16.567Z,11.10
2022-11-09T17:23:44.282Z,11.10
2022-11-09T17:26:12.379Z,11.10
2022-11-09T17:28:43.195Z,11.10
2022-11-09T17:31:20.423Z,11.00
2022-11-09T17:33:47.559Z,11.00
2022-11-09T17:36:35.126Z,11.00
2022-11-09T17:39:06.166Z,11.00
2022-11-09T17:41:33.055Z,11.00
2022-11-09T17:44:02.831Z,11.00
2022-11-09T17:46:30.235Z,10.90
2022-11-09T17:48:57.147Z,10.90
2022-11-09T17:51:25.259Z,10.90
2022-11-09T17:53:52.143Z,10.90
2022-11-09T17:56:19.147Z,10.90
2022-11-09T17:58:47.039Z,10.90
2022-11-09T18:01:19.855Z,10.90
2022-11-09T18:03:47.108Z,10.90
2022-11-09T18:06:19.887Z,10.80
2022-11-09T18:09:03.598Z,10.80
2022-11-09T18:11:35.245Z,10.80
2022-11-09T18:14:02.491Z,10.80
2022-11-09T18:16:29.373Z,10.80
2022-11-09T18:19:02.276Z,10.80
2022-11-09T18:21:30.177Z,10.80
2022-11-09T18:23:57.288Z,10.80
2022-11-09T18:26:24.687Z,10.80
2022-11-09T18:28:51.640Z,10.80
2022-11-09T18:31:18.544Z,10.80
2022-11-09T18:33:45.476Z,10.90
2022-11-09T18:36:20.964Z,10.90
2022-11-09T18:38:51.742Z,10.90
2022-11-09T18:41:23.120Z,10.90
2022-11-09T18:43:53.737Z,10.90
2022-11-09T18:46:22.222Z,10.90
2022-11-09T18:48:54.189Z,10.90
2022-11-09T18:51:21.956Z,10.90
2022-11-09T18:53:49.814Z,10.90
2022-11-09T18:56:24.831Z,10.90
2022-11-09T18:58:55.802Z,10.90
2022-11-09T19:01:27.309Z,11.00
2022-11-09T19:03:59.290Z,11.00
2022-11-09T19:06:28.234Z,11.00
2022-11-09T19:09:14.369Z,11.00
2022-11-09T19:11:41.485Z,11.00
2022-11-09T19:14:11.146Z,10.90
2022-11-09T19:16:38.206Z,10.90
2022-11-09T19:19:05.089Z,10.90
2022-11-09T19:21:49.108Z,10.90
2022-11-09T19:24:23.618Z,10.90
2022-11-09T19:26:51.749Z,10.90
2022-11-09T19:29:18.822Z,10.90
2022-11-09T19:31:46.513Z,10.90
2022-11-09T19:34:18.726Z,10.90
2022-11-09T19:36:46.800Z,10.90
2022-11-09T19:39:15.834Z,10.90
2022-11-09T19:41:43.261Z,10.90
2022-11-09T19:44:14.868Z,10.90
2022-11-09T19:46:41.867Z,10.90
2022-11-09T19:49:09.746Z,11.00
2022-11-09T19:51:38.621Z,11.00
2022-11-09T19:54:07.549Z,10.90
2022-11-09T19:56:36.864Z,11.00
2022-11-09T19:59:05.441Z,10.90
2022-11-09T20:01:32.636Z,10.90
2022-11-09T20:04:03.174Z,10.90
2022-11-09T20:06:32.215Z,10.90
2022-11-09T20:09:00.614Z,10.90
2022-11-09T20:11:48.212Z,11.00
2022-11-09T20:14:15.427Z,10.90
2022-11-09T20:16:44.376Z,11.00
2022-11-09T20:19:14.479Z,10.90
2022-11-09T20:21:42.520Z,11.00
2022-11-09T20:24:12.158Z,11.00
2022-11-09T20:26:41.157Z,11.00
2022-11-09T20:29:08.369Z,11.00
2022-11-09T20:31:37.015Z,10.90
2022-11-09T20:34:04.605Z,10.90
2022-11-09T20:36:32.004Z,11.00
2022-11-09T20:38:58.924Z,11.00
2022-11-09T20:41:26.156Z,11.00
2022-11-09T20:43:53.655Z,11.00
2022-11-09T20:46:23.685Z,11.00
2022-11-09T20:48:54.651Z,11.00
2022-11-09T20:51:24.170Z,11.00
2022-11-09T20:53:51.886Z,11.00
2022-11-09T20:56:20.641Z,11.00
2022-11-09T20:58:48.174Z,11.00
2022-11-09T21:01:21.721Z,11.00
2022-11-09T21:03:50.967Z,11.00
2022-11-09T21:06:21.172Z,11.00
2022-11-09T21:08:55.741Z,10.90
2022-11-09T21:11:25.299Z,10.90
2022-11-09T21:13:54.147Z,10.90
2022-11-09T21:16:23.372Z,10.90
2022-11-09T21:18:50.383Z,10.90
2022-11-09T21:21:24.712Z,10.80
2022-11-09T21:24:10.694Z,10.80
2022-11-09T21:26:56.016Z,10.80
2022-11-09T21:29:43.467Z,10.80
2022-11-09T21:32:12.099Z,10.80
2022-11-09T21:34:39.135Z,10.80
2022-11-09T21:37:06.547Z,10.70
2022-11-09T21:39:34.130Z,10.60
2022-11-09T21:42:03.347Z,10.70
2022-11-09T21:44:33.912Z,10.70
2022-11-09T21:47:02.227Z,10.70
2022-11-09T21:49:30.507Z,10.70
2022-11-09T21:51:58.049Z,10.70
2022-11-09T21:54:25.471Z,10.80
2022-11-09T21:56:53.141Z,10.80
2022-11-09T21:59:20.592Z,10.80
2022-11-09T22:01:47.558Z,10.80
2022-11-09T22:04:15.044Z,10.80
2022-11-09T22:06:43.314Z,10.80
2022-11-09T22:09:18.562Z,10.80
2022-11-09T22:12:04.881Z,10.90
2022-11-09T22:14:50.485Z,10.90
2022-11-09T22:17:17.412Z,10.80
2022-11-09T22:20:03.264Z,10.80
2022-11-09T22:22:31.626Z,10.90
2022-11-09T22:24:58.880Z,10.80
2022-11-09T22:27:26.313Z,10.70
2022-11-09T22:29:53.256Z,10.60
2022-11-09T22:32:21.821Z,10.50
2022-11-09T22:34:48.832Z,10.60
2022-11-09T22:37:15.956Z,10.50
2022-11-09T22:39:47.075Z,10.50
2022-11-09T22:42:14.825Z,10.40
2022-11-09T22:44:41.750Z,10.40
2022-11-09T22:47:08.782Z,10.40
2022-11-09T22:49:36.601Z,10.40
2022-11-09T22:52:05.097Z,10.40
2022-11-09T22:54:32.083Z,10.30
2022-11-09T22:56:59.006Z,10.30
2022-11-09T22:59:26.078Z,10.30
2022-11-09T23:01:53.024Z,10.30
2022-11-09T23:04:19.918Z,10.30
2022-11-09T23:06:46.892Z,10.20
2022-11-09T23:09:13.838Z,10.20
2022-11-09T23:11:41.489Z,10.20
2022-11-09T23:14:08.718Z,10.20
2022-11-09T23:16:35.574Z,10.20
2022-11-09T23:19:02.426Z,10.10
2022-11-09T23:21:37.733Z,10.10
2022-11-09T23:24:28.014Z,10.10
2022-11-09T23:26:54.970Z,10.00
2022-11-09T23:29:21.801Z,10.00
2022-11-09T23:31:48.634Z,9.90
2022-11-09T23:34:15.614Z,9.90
2022-11-09T23:36:42.466Z,9.90
2022-11-09T23:39:09.414Z,9.80
2022-11-09T23:41:36.522Z,9.90
2022-11-09T23:44:03.388Z,9.90
2022-11-09T23:46:30.234Z,9.90
2022-11-09T23:48:57.086Z,9.90
2022-11-09T23:51:24.094Z,9.90
2022-11-09T23:53:50.947Z,9.90
2022-11-09T23:56:17.884Z,9.90
2022-11-09T23:58:51.487Z,10.00
